Ft Sturla — IBXV — position and weather

sailwx.info

Track history (hours):
 
Tides and Currents Weather Stations Pressure Air Temp Water Temp Dewpoint Dewpoint Depression Visibility Wind Speed Wind Dir Waves Ship Positions

Ft Sturla

Last reported at 2015-Mar-26 09:31 UTC. Time now 2015-Apr-01 10:40 UTC.
Position N 39°23' E 008°08'.

Length 120 m; draft 5.8 m.

Type: Ship (hazmat cat C). MMSI: 247282200.

Date/timePositionNaut miles runAvg speedWind from/ knotsBaromVisibWave heightAir tempDewpointWater temp
2015-Mar-26 09:31N 39°23' E 008°08'39 9.2
2015-Mar-26 05:19N 38°47' E 008°28'1110.8
2015-Mar-26 04:20N 38°44' E 008°40'911.2
2015-Mar-26 03:33N 38°41' E 008°51'1211.7
2015-Mar-26 02:32N 38°36' E 009°05'13811.3
2015-Mar-25 14:16N 37°43' E 011°47'912.2
2015-Mar-25 13:33N 37°40' E 011°58'1212.4
2015-Mar-25 12:33N 37°35' E 012°12'1212.1
2015-Mar-25 11:33N 37°31' E 012°26'6612.3
2015-Mar-25 06:11N 37°02' E 013°41'711.8
2015-Mar-25 05:33N 36°59' E 013°49'1212.0
2015-Mar-25 04:33N 36°54' E 014°03'1212.0
2015-Mar-25 03:33N 36°48' E 014°16'1212.0
2015-Mar-25 02:33N 36°42' E 014°29'1211.6
2015-Mar-25 01:32N 36°40' E 014°44'  
2015-Mar-19 13:32N 36°41' E 014°33'1212.3
2015-Mar-19 12:34N 36°45' E 014°19'1312.7
2015-Mar-19 11:34N 36°51' E 014°05'1313.0
2015-Mar-19 10:33N 36°57' E 013°51'10812.0
2015-Mar-19 01:33N 37°43' E 011°48'14811.9
2015-Mar-18 13:12N 38°39' E 008°54'811.5
2015-Mar-18 12:31N 38°42' E 008°45'1311.2
2015-Mar-18 11:19N 38°47' E 008°28'33 0.7
2015-Mar-16 12:33N 39°18' E 008°18'2512.5
2015-Mar-16 10:33N 39°43' E 008°11'1212.5
2015-Mar-16 09:33N 39°55' E 008°10'  
Track history (hours):
 
Tides and Currents Weather Stations Pressure Air Temp Water Temp Dewpoint Dewpoint Depression Visibility Wind Speed Wind Dir Waves Ship Positions

Ft Sturla

Last reported at 2015-Mar-26 09:31 UTC. Time now 2015-Apr-01 10:40 UTC.
Position N 39°23' E 008°08'.

Length 120 m; draft 5.8 m.

Type: Ship (hazmat cat C). MMSI: 247282200.

Date/timePositionNaut miles runAvg speedWind from/ knotsBaromVisibWave heightAir tempDewpointWater temp
2015-Mar-26 09:31N 39°23' E 008°08'39 9.2
2015-Mar-26 05:19N 38°47' E 008°28'1110.8
2015-Mar-26 04:20N 38°44' E 008°40'911.2
2015-Mar-26 03:33N 38°41' E 008°51'1211.7
2015-Mar-26 02:32N 38°36' E 009°05'13811.3
2015-Mar-25 14:16N 37°43' E 011°47'912.2
2015-Mar-25 13:33N 37°40' E 011°58'1212.4
2015-Mar-25 12:33N 37°35' E 012°12'1212.1
2015-Mar-25 11:33N 37°31' E 012°26'6612.3
2015-Mar-25 06:11N 37°02' E 013°41'711.8
2015-Mar-25 05:33N 36°59' E 013°49'1212.0
2015-Mar-25 04:33N 36°54' E 014°03'1212.0
2015-Mar-25 03:33N 36°48' E 014°16'1212.0
2015-Mar-25 02:33N 36°42' E 014°29'1211.6
2015-Mar-25 01:32N 36°40' E 014°44'  
2015-Mar-19 13:32N 36°41' E 014°33'1212.3
2015-Mar-19 12:34N 36°45' E 014°19'1312.7
2015-Mar-19 11:34N 36°51' E 014°05'1313.0
2015-Mar-19 10:33N 36°57' E 013°51'10812.0
2015-Mar-19 01:33N 37°43' E 011°48'14811.9
2015-Mar-18 13:12N 38°39' E 008°54'811.5
2015-Mar-18 12:31N 38°42' E 008°45'1311.2
2015-Mar-18 11:19N 38°47' E 008°28'33 0.7
2015-Mar-16 12:33N 39°18' E 008°18'2512.5
2015-Mar-16 10:33N 39°43' E 008°11'1212.5
2015-Mar-16 09:33N 39°55' E 008°10'  

Dump ship's entire track history